createdAt,value
2022-09-13T00:01:02.392Z,3.67
2022-09-13T00:03:29.182Z,3.80
2022-09-13T00:05:55.794Z,3.45
2022-09-13T00:08:22.471Z,3.60
2022-09-13T00:10:49.412Z,3.85
2022-09-13T00:13:17.113Z,3.45
2022-09-13T00:15:49.053Z,3.63
2022-09-13T00:20:42.805Z,3.70
2022-09-13T00:23:09.595Z,3.83
2022-09-13T00:25:36.437Z,3.60
2022-09-13T00:28:03.953Z,4.20
2022-09-13T00:30:30.900Z,3.65
2022-09-13T00:32:57.373Z,3.50
2022-09-13T00:35:24.168Z,3.53
2022-09-13T00:37:51.074Z,3.88
2022-09-13T00:40:17.799Z,3.83
2022-09-13T00:42:44.302Z,3.97
2022-09-13T00:45:10.829Z,4.03
2022-09-13T00:47:42.926Z,3.78
2022-09-13T00:50:21.155Z,4.10
2022-09-13T00:52:55.750Z,3.90
2022-09-13T00:55:43.017Z,4.10
2022-09-13T00:58:17.621Z,4.60
2022-09-13T01:00:45.233Z,4.22
2022-09-13T01:03:15.673Z,4.30
2022-09-13T01:05:46.308Z,4.18
2022-09-13T01:08:20.429Z,4.25
2022-09-13T01:10:50.992Z,4.75
2022-09-13T01:13:23.059Z,4.13
2022-09-13T01:15:50.136Z,4.13
2022-09-13T01:18:16.945Z,4.30
2022-09-13T01:21:00.922Z,4.63
2022-09-13T01:23:51.056Z,4.63
2022-09-13T01:26:38.071Z,4.72
2022-09-13T01:29:25.553Z,4.63
2022-09-13T01:32:04.129Z,4.20
2022-09-13T01:34:36.603Z,4.43
2022-09-13T01:37:24.850Z,4.28
2022-09-13T01:40:05.961Z,4.88
2022-09-13T01:43:02.587Z,5.33
2022-09-13T01:45:45.412Z,4.70
2022-09-13T01:48:23.308Z,4.82
2022-09-13T01:51:36.957Z,5.10
2022-09-13T01:54:15.357Z,4.85
2022-09-13T01:57:00.455Z,4.60
2022-09-13T01:59:45.876Z,4.60
2022-09-13T02:02:23.199Z,4.93
2022-09-13T02:04:59.140Z,5.03
2022-09-13T02:07:35.049Z,4.70
2022-09-13T02:10:09.546Z,5.20
2022-09-13T02:12:41.592Z,4.80
2022-09-13T02:15:24.261Z,4.53
2022-09-13T02:18:00.774Z,4.78
2022-09-13T02:20:34.963Z,4.78
2022-09-13T02:23:10.667Z,5.25
2022-09-13T02:25:39.924Z,4.95
2022-09-13T02:28:11.029Z,5.25
2022-09-13T02:30:44.345Z,5.05
2022-09-13T02:33:33.622Z,4.72
2022-09-13T02:36:05.906Z,5.28
2022-09-13T02:38:48.834Z,4.95
2022-09-13T02:41:23.572Z,4.65
2022-09-13T02:43:55.679Z,5.07
2022-09-13T02:46:44.979Z,4.85
2022-09-13T02:49:34.338Z,4.85
2022-09-13T02:52:09.750Z,4.75
2022-09-13T02:55:04.627Z,4.72
2022-09-13T02:57:42.291Z,4.80
2022-09-13T03:00:09.934Z,5.00
2022-09-13T03:02:37.932Z,5.10
2022-09-13T03:05:04.687Z,5.35
2022-09-13T03:07:31.165Z,4.80
2022-09-13T03:10:06.246Z,4.95
2022-09-13T03:12:50.985Z,4.82
2022-09-13T03:15:17.635Z,5.03
2022-09-13T03:18:04.239Z,5.35
2022-09-13T03:20:37.116Z,4.97
2022-09-13T03:23:17.222Z,4.93
2022-09-13T03:26:17.333Z,4.75
2022-09-13T03:29:08.856Z,4.70
2022-09-13T03:31:53.608Z,4.40
2022-09-13T03:34:38.537Z,4.55
2022-09-13T03:37:17.432Z,5.30
2022-09-13T03:39:54.648Z,4.40
2022-09-13T03:42:59.457Z,4.75
2022-09-13T03:45:31.318Z,4.10
2022-09-13T03:50:26.356Z,4.60
2022-09-13T03:53:00.286Z,4.95
2022-09-13T03:55:27.698Z,5.60
2022-09-13T03:57:54.195Z,5.10
2022-09-13T04:00:21.161Z,4.88
2022-09-13T04:02:47.994Z,5.03
2022-09-13T04:05:14.553Z,4.95
2022-09-13T04:07:41.090Z,5.53
2022-09-13T04:10:11.834Z,5.50
2022-09-13T04:12:41.338Z,5.75
2022-09-13T04:15:08.825Z,5.93
2022-09-13T04:17:36.300Z,6.07
2022-09-13T04:20:03.480Z,6.40
2022-09-13T04:22:29.961Z,6.20
2022-09-13T04:25:01.503Z,6.10
2022-09-13T04:27:28.985Z,5.90
2022-09-13T04:29:55.423Z,6.70
2022-09-13T04:32:22.025Z,5.95
2022-09-13T04:34:48.471Z,6.13
2022-09-13T04:37:14.963Z,6.40
2022-09-13T04:39:41.413Z,6.65
2022-09-13T04:42:09.208Z,6.25
2022-09-13T04:44:35.874Z,6.38
2022-09-13T04:47:02.710Z,6.75
2022-09-13T04:49:29.179Z,7.20
2022-09-13T04:51:55.663Z,6.30
2022-09-13T04:54:22.302Z,6.68
2022-09-13T04:56:49.496Z,6.55
2022-09-13T04:59:16.874Z,6.22
2022-09-13T05:01:43.570Z,6.22
2022-09-13T05:04:10.598Z,6.72
2022-09-13T05:06:37.149Z,6.00
2022-09-13T05:09:04.490Z,6.82
2022-09-13T05:11:31.353Z,5.75
2022-09-13T05:13:59.923Z,6.10
2022-09-13T05:16:28.816Z,6.10
2022-09-13T05:18:55.778Z,5.70
2022-09-13T05:21:22.479Z,6.28
2022-09-13T05:23:49.877Z,6.10
2022-09-13T05:26:17.040Z,6.15
2022-09-13T05:28:43.873Z,5.90
2022-09-13T05:31:16.192Z,5.85
2022-09-13T05:33:43.669Z,5.80
2022-09-13T05:36:10.154Z,5.93
2022-09-13T05:38:36.802Z,5.70
2022-09-13T05:41:05.472Z,6.13
2022-09-13T05:43:34.696Z,6.28
2022-09-13T05:46:07.071Z,6.38
2022-09-13T05:48:35.067Z,6.05
2022-09-13T05:51:22.022Z,5.47
2022-09-13T05:53:50.694Z,5.88
2022-09-13T05:56:35.061Z,5.70
2022-09-13T05:59:01.540Z,5.68
2022-09-13T06:01:29.298Z,6.07
2022-09-13T06:03:59.236Z,5.55
2022-09-13T06:06:26.089Z,5.30
2022-09-13T06:08:53.731Z,5.30
2022-09-13T06:11:20.319Z,5.30
2022-09-13T06:13:46.847Z,5.03
2022-09-13T06:16:16.173Z,4.68
2022-09-13T06:18:43.397Z,5.13
2022-09-13T06:21:17.508Z,5.22
2022-09-13T06:23:48.744Z,5.25
2022-09-13T06:26:17.712Z,4.95
2022-09-13T06:28:49.090Z,4.80
2022-09-13T06:31:18.070Z,5.22
2022-09-13T06:33:45.098Z,5.00
2022-09-13T06:36:18.132Z,5.20
2022-09-13T06:38:46.649Z,4.88
2022-09-13T06:41:15.707Z,4.93
2022-09-13T06:43:42.407Z,5.00
2022-09-13T06:46:15.463Z,5.15
2022-09-13T06:48:43.716Z,5.00
2022-09-13T06:51:13.083Z,4.75
2022-09-13T06:53:41.064Z,4.72
2022-09-13T06:56:10.684Z,4.57
2022-09-13T06:58:38.683Z,4.93
2022-09-13T07:01:29.718Z,4.85
2022-09-13T07:04:11.691Z,4.55
2022-09-13T07:06:40.502Z,4.72
2022-09-13T07:09:11.036Z,4.45
2022-09-13T07:11:40.013Z,4.40
2022-09-13T07:14:07.695Z,4.32
2022-09-13T07:16:38.515Z,4.38
2022-09-13T07:19:07.738Z,3.97
2022-09-13T07:21:35.666Z,4.40
2022-09-13T07:24:02.390Z,4.10
2022-09-13T07:26:28.995Z,4.00
2022-09-13T07:28:59.306Z,3.80
2022-09-13T07:31:47.407Z,4.38
2022-09-13T07:34:15.926Z,4.40
2022-09-13T07:36:43.072Z,4.13
2022-09-13T07:39:14.352Z,3.88
2022-09-13T07:41:44.415Z,3.65
2022-09-13T07:44:11.888Z,4.38
2022-09-13T07:46:43.753Z,4.10
2022-09-13T07:49:12.937Z,4.13
2022-09-13T07:51:41.824Z,3.75
2022-09-13T07:54:12.087Z,3.70
2022-09-13T07:56:40.857Z,4.00
2022-09-13T07:59:12.599Z,3.90
2022-09-13T08:01:44.619Z,3.75
2022-09-13T08:04:13.977Z,3.85
2022-09-13T08:06:43.325Z,3.55
2022-09-13T08:09:10.647Z,3.85
2022-09-13T08:11:45.941Z,3.80
2022-09-13T08:14:14.686Z,3.80
2022-09-13T08:16:41.243Z,3.45
2022-09-13T08:19:10.591Z,3.47
2022-09-13T08:21:39.676Z,3.17
2022-09-13T08:24:08.688Z,3.33
2022-09-13T08:26:36.465Z,3.67
2022-09-13T08:29:06.289Z,3.63
2022-09-13T08:31:33.760Z,3.83
2022-09-13T08:34:00.568Z,3.63
2022-09-13T08:36:28.426Z,3.80
2022-09-13T08:38:59.130Z,3.45
2022-09-13T08:41:34.842Z,3.95
2022-09-13T08:44:23.826Z,3.55
2022-09-13T08:46:51.042Z,3.45
2022-09-13T08:49:27.408Z,3.83
2022-09-13T08:51:58.667Z,4.00
2022-09-13T08:54:25.668Z,3.60
2022-09-13T08:57:06.278Z,4.10
2022-09-13T08:59:54.111Z,4.30
2022-09-13T09:02:41.396Z,4.20
2022-09-13T09:05:16.624Z,4.15
2022-09-13T09:07:47.574Z,4.18
2022-09-13T09:10:19.127Z,4.43
2022-09-13T09:12:48.383Z,4.10
2022-09-13T09:15:22.680Z,4.18
2022-09-13T09:18:09.442Z,4.40
2022-09-13T09:20:50.385Z,3.83
2022-09-13T09:23:42.010Z,4.15
2022-09-13T09:26:23.959Z,4.22
2022-09-13T09:31:35.739Z,3.90
2022-09-13T09:34:08.180Z,3.70
2022-09-13T09:36:55.666Z,4.30
2022-09-13T09:39:26.116Z,4.10
2022-09-13T09:41:57.558Z,4.43
2022-09-13T09:44:31.197Z,3.90
2022-09-13T09:47:10.768Z,4.40
2022-09-13T09:49:59.554Z,4.80
2022-09-13T09:52:32.146Z,4.00
2022-09-13T09:55:23.275Z,4.00
2022-09-13T09:57:54.676Z,4.28
2022-09-13T10:00:24.309Z,4.63
2022-09-13T10:02:55.084Z,3.75
2022-09-13T10:05:23.848Z,3.75
2022-09-13T10:07:57.579Z,4.10
2022-09-13T10:10:29.658Z,3.95
2022-09-13T10:12:57.372Z,3.90
2022-09-13T10:15:29.247Z,4.25
2022-09-13T10:20:31.503Z,3.70
2022-09-13T10:23:24.042Z,4.43
2022-09-13T10:25:59.163Z,4.20
2022-09-13T10:28:26.850Z,4.32
2022-09-13T10:30:58.325Z,3.72
2022-09-13T10:33:32.306Z,5.80
2022-09-13T10:36:03.187Z,4.82
2022-09-13T10:38:37.474Z,4.85
2022-09-13T10:41:11.324Z,4.18
2022-09-13T10:43:38.293Z,4.95
2022-09-13T10:46:11.350Z,5.35
2022-09-13T10:48:47.361Z,4.75
2022-09-13T10:51:29.364Z,4.82
2022-09-13T10:56:46.631Z,4.72
2022-09-13T10:59:24.766Z,4.55
2022-09-13T11:02:13.721Z,4.82
2022-09-13T11:05:18.815Z,5.13
2022-09-13T11:08:30.525Z,4.40
2022-09-13T11:11:34.144Z,5.10
2022-09-13T11:14:22.665Z,4.70
2022-09-13T11:16:58.829Z,5.20
2022-09-13T11:19:47.458Z,5.45
2022-09-13T11:22:43.683Z,4.93
2022-09-13T11:25:16.770Z,5.78
2022-09-13T11:27:43.455Z,5.97
2022-09-13T11:30:18.418Z,5.50
2022-09-13T11:33:15.141Z,5.30
2022-09-13T11:35:53.780Z,4.72
2022-09-13T11:38:58.300Z,5.32
2022-09-13T11:41:28.373Z,4.68
2022-09-13T11:43:57.861Z,5.13
2022-09-13T11:46:35.374Z,4.68
2022-09-13T11:49:32.772Z,4.50
2022-09-13T11:52:29.215Z,4.68
2022-09-13T11:55:26.089Z,4.72
2022-09-13T11:57:55.913Z,4.68
2022-09-13T12:00:23.908Z,5.07
2022-09-13T12:03:26.266Z,4.70
2022-09-13T12:05:57.884Z,5.00
2022-09-13T12:08:29.889Z,4.45
2022-09-13T12:10:59.437Z,5.07
2022-09-13T12:13:30.107Z,5.28
2022-09-13T12:16:02.335Z,5.43
2022-09-13T12:18:37.745Z,6.13
2022-09-13T12:21:07.440Z,4.80
2022-09-13T12:23:38.804Z,5.45
2022-09-13T12:26:13.284Z,5.78
2022-09-13T12:28:48.456Z,5.63
2022-09-13T12:31:19.884Z,5.78
2022-09-13T12:33:48.655Z,6.60
2022-09-13T12:36:29.698Z,6.05
2022-09-13T12:39:24.061Z,6.25
2022-09-13T12:41:50.491Z,6.13
2022-09-13T12:44:36.847Z,6.35
2022-09-13T12:47:24.619Z,5.70
2022-09-13T12:50:21.515Z,5.28
2022-09-13T12:53:24.144Z,5.05
2022-09-13T12:56:15.371Z,4.88
2022-09-13T12:58:57.271Z,5.37
2022-09-13T13:01:26.426Z,4.75
2022-09-13T13:04:01.998Z,4.68
2022-09-13T13:06:41.123Z,4.50
2022-09-13T13:09:29.069Z,4.63
2022-09-13T13:11:58.454Z,4.70
2022-09-13T13:14:40.315Z,4.65
2022-09-13T13:17:36.586Z,4.55
2022-09-13T13:20:41.024Z,4.60
2022-09-13T13:23:20.937Z,4.75
2022-09-13T13:26:07.986Z,4.03
2022-09-13T13:28:43.860Z,4.13
2022-09-13T13:31:27.240Z,4.20
2022-09-13T13:33:59.498Z,4.00
2022-09-13T13:36:28.835Z,4.18
2022-09-13T13:38:59.930Z,3.70
2022-09-13T13:41:39.714Z,3.13
2022-09-13T13:44:15.426Z,3.00
2022-09-13T13:46:42.577Z,3.00
2022-09-13T13:49:30.937Z,3.05
2022-09-13T13:52:06.785Z,3.08
2022-09-13T13:54:42.869Z,3.30
2022-09-13T13:57:31.010Z,3.85
2022-09-13T14:00:23.591Z,3.90
2022-09-13T14:02:50.034Z,3.45
2022-09-13T14:06:06.019Z,3.63
2022-09-13T14:08:39.001Z,3.45
2022-09-13T14:11:17.563Z,3.35
2022-09-13T14:14:15.406Z,3.10
2022-09-13T14:17:00.267Z,3.13
2022-09-13T14:19:27.762Z,3.33
2022-09-13T14:22:12.303Z,2.75
2022-09-13T14:24:43.115Z,3.25
2022-09-13T14:27:23.177Z,3.50
2022-09-13T14:30:01.713Z,3.50
2022-09-13T14:32:37.161Z,3.58
2022-09-13T14:35:21.890Z,3.28
2022-09-13T14:40:22.389Z,3.40
2022-09-13T14:42:51.582Z,3.17
2022-09-13T14:45:36.046Z,4.03
2022-09-13T14:48:13.592Z,3.95
2022-09-13T14:50:46.842Z,3.38
2022-09-13T14:53:21.114Z,4.20
2022-09-13T14:55:59.761Z,3.80
2022-09-13T14:58:36.931Z,3.92
2022-09-13T15:01:11.513Z,4.38
2022-09-13T15:03:43.063Z,4.30
2022-09-13T15:06:30.469Z,4.53
2022-09-13T15:09:15.180Z,3.88
2022-09-13T15:11:56.883Z,3.90
2022-09-13T15:14:34.914Z,3.65
2022-09-13T15:17:14.126Z,4.10
2022-09-13T15:19:48.860Z,3.90
2022-09-13T15:22:23.278Z,4.07
2022-09-13T15:25:00.889Z,3.70
2022-09-13T15:27:31.412Z,4.57
2022-09-13T15:30:01.184Z,3.88
2022-09-13T15:32:41.041Z,3.70
2022-09-13T15:35:36.253Z,4.50
2022-09-13T15:38:31.723Z,4.35
2022-09-13T15:41:19.476Z,3.92
2022-09-13T15:43:48.681Z,4.00
2022-09-13T15:46:16.711Z,4.60
2022-09-13T15:49:02.958Z,4.95
2022-09-13T15:51:30.109Z,4.40
2022-09-13T15:53:56.675Z,4.55
2022-09-13T15:56:31.897Z,4.45
2022-09-13T15:58:58.702Z,4.13
2022-09-13T16:01:27.504Z,4.60
2022-09-13T16:03:54.005Z,4.78
2022-09-13T16:06:24.438Z,4.70
2022-09-13T16:08:51.327Z,4.30
2022-09-13T16:11:17.748Z,5.03
2022-09-13T16:13:44.228Z,4.90
2022-09-13T16:16:13.833Z,5.85
2022-09-13T16:18:41.658Z,6.80
2022-09-13T16:21:08.141Z,6.93
2022-09-13T16:23:34.622Z,6.63
2022-09-13T16:26:01.333Z,5.90
2022-09-13T16:28:28.239Z,5.85
2022-09-13T16:30:54.784Z,5.93
2022-09-13T16:33:21.344Z,6.25
2022-09-13T16:35:47.871Z,5.75
2022-09-13T16:38:14.474Z,6.95
2022-09-13T16:40:43.124Z,6.88
2022-09-13T16:43:10.024Z,6.55
2022-09-13T16:45:41.386Z,7.60
2022-09-13T16:48:08.935Z,6.88
2022-09-13T16:50:36.055Z,6.55
2022-09-13T16:53:02.877Z,7.03
2022-09-13T16:55:30.135Z,7.00
2022-09-13T16:57:56.598Z,6.50
2022-09-13T17:00:28.415Z,6.38
2022-09-13T17:05:25.142Z,7.15
2022-09-13T17:07:52.516Z,6.97
2022-09-13T17:10:19.617Z,6.75
2022-09-13T17:12:46.446Z,8.20
2022-09-13T17:15:13.096Z,7.90
2022-09-13T17:17:39.553Z,8.10
2022-09-13T17:20:10.333Z,7.93
2022-09-13T17:22:37.044Z,7.65
2022-09-13T17:25:04.562Z,7.55
2022-09-13T17:27:31.012Z,7.95
2022-09-13T17:29:57.542Z,7.63
2022-09-13T17:32:23.994Z,7.70
2022-09-13T17:34:50.644Z,7.82
2022-09-13T17:37:17.263Z,7.90
2022-09-13T17:39:43.776Z,7.85
2022-09-13T17:42:10.529Z,7.05
2022-09-13T17:44:37.160Z,7.32
2022-09-13T17:47:04.115Z,7.60
2022-09-13T17:49:30.624Z,7.65
2022-09-13T17:51:57.841Z,7.65
2022-09-13T17:54:26.058Z,7.25
2022-09-13T17:56:52.539Z,8.00
2022-09-13T17:59:21.312Z,7.13
2022-09-13T18:01:52.975Z,7.13
2022-09-13T18:04:21.830Z,7.45
2022-09-13T18:06:51.204Z,7.13
2022-09-13T18:09:17.709Z,7.53
2022-09-13T18:11:44.413Z,7.45
2022-09-13T18:14:13.814Z,8.18
2022-09-13T18:16:41.612Z,7.50
2022-09-13T18:19:08.192Z,8.18
2022-09-13T18:21:35.006Z,8.90
2022-09-13T18:24:01.712Z,7.93
2022-09-13T18:26:30.176Z,6.63
2022-09-13T18:29:01.839Z,7.38
2022-09-13T18:31:30.135Z,8.30
2022-09-13T18:33:59.326Z,7.85
2022-09-13T18:36:27.430Z,8.18
2022-09-13T18:38:56.082Z,8.35
2022-09-13T18:41:25.639Z,8.45
2022-09-13T18:43:55.797Z,8.75
2022-09-13T18:46:30.941Z,8.70
2022-09-13T18:48:58.270Z,8.75
2022-09-13T18:51:28.800Z,8.90
2022-09-13T18:53:56.003Z,8.45
2022-09-13T18:56:23.460Z,9.05
2022-09-13T18:58:52.468Z,9.20
2022-09-13T19:01:20.312Z,9.55
2022-09-13T19:04:00.521Z,8.60
2022-09-13T19:06:32.838Z,8.77
2022-09-13T19:09:00.130Z,9.00
2022-09-13T19:11:46.236Z,9.00
2022-09-13T19:14:19.607Z,8.85
2022-09-13T19:16:46.434Z,8.63
2022-09-13T19:19:13.444Z,8.63
2022-09-13T19:21:40.679Z,8.00
2022-09-13T19:24:16.182Z,7.85
2022-09-13T19:26:44.539Z,8.95
2022-09-13T19:29:17.149Z,8.70
2022-09-13T19:31:47.999Z,8.43
2022-09-13T19:34:15.483Z,8.45
2022-09-13T19:36:44.193Z,8.65
2022-09-13T19:39:11.357Z,7.80
2022-09-13T19:41:39.609Z,7.78
2022-09-13T19:44:07.001Z,8.05
2022-09-13T19:46:37.748Z,7.68
2022-09-13T19:49:05.673Z,8.80
2022-09-13T19:51:38.256Z,8.63
2022-09-13T19:54:06.415Z,8.10
2022-09-13T19:56:35.383Z,7.10
2022-09-13T19:59:02.991Z,8.05
2022-09-13T20:01:34.950Z,7.72
2022-09-13T20:04:04.218Z,7.28
2022-09-13T20:06:36.123Z,7.40
2022-09-13T20:11:33.337Z,6.82
2022-09-13T20:14:01.025Z,6.97
2022-09-13T20:16:33.773Z,6.97
2022-09-13T20:19:01.566Z,6.80
2022-09-13T20:21:30.903Z,6.50
2022-09-13T20:24:03.818Z,6.70
2022-09-13T20:26:32.411Z,6.28
2022-09-13T20:29:05.714Z,6.63
2022-09-13T20:31:35.992Z,6.00
2022-09-13T20:34:04.240Z,5.90
2022-09-13T20:36:33.726Z,5.72
2022-09-13T20:39:03.383Z,5.57
2022-09-13T20:41:31.306Z,4.50
2022-09-13T20:43:59.779Z,4.55
2022-09-13T20:46:27.323Z,4.90
2022-09-13T20:48:53.873Z,4.97
2022-09-13T20:51:24.367Z,4.63
2022-09-13T20:53:55.983Z,4.60
2022-09-13T20:56:23.480Z,5.05
2022-09-13T20:58:57.134Z,4.55
2022-09-13T21:01:24.609Z,4.90
2022-09-13T21:03:53.460Z,5.05
2022-09-13T21:06:22.495Z,4.85
2022-09-13T21:08:50.328Z,4.97
2022-09-13T21:11:20.435Z,4.53
2022-09-13T21:13:55.660Z,3.58
2022-09-13T21:16:24.695Z,3.95
2022-09-13T21:18:52.406Z,3.30
2022-09-13T21:21:21.391Z,3.38
2022-09-13T21:23:48.488Z,3.40
2022-09-13T21:26:17.805Z,3.30
2022-09-13T21:28:44.493Z,3.42
2022-09-13T21:31:21.458Z,3.40
2022-09-13T21:33:48.753Z,3.30
2022-09-13T21:36:15.306Z,3.30
2022-09-13T21:38:45.147Z,4.50
2022-09-13T21:41:15.101Z,4.28
2022-09-13T21:43:42.721Z,3.97
2022-09-13T21:46:21.439Z,4.20
2022-09-13T21:48:50.400Z,4.07
2022-09-13T21:51:24.184Z,3.70
2022-09-13T21:53:58.759Z,3.45
2022-09-13T21:56:28.504Z,3.40
2022-09-13T21:59:00.433Z,4.00
2022-09-13T22:03:58.687Z,3.95
2022-09-13T22:06:29.100Z,4.32
2022-09-13T22:09:00.210Z,3.72
2022-09-13T22:11:35.737Z,3.88
2022-09-13T22:14:02.482Z,3.40
2022-09-13T22:16:34.483Z,3.40
2022-09-13T22:19:09.232Z,3.42
2022-09-13T22:21:38.990Z,3.15
2022-09-13T22:24:06.972Z,3.30
2022-09-13T22:26:36.839Z,3.38
2022-09-13T22:29:04.220Z,2.92
2022-09-13T22:31:35.506Z,3.47
2022-09-13T22:34:02.754Z,3.30
2022-09-13T22:36:29.439Z,3.28
2022-09-13T22:38:56.365Z,3.28
2022-09-13T22:41:28.562Z,2.90
2022-09-13T22:43:55.689Z,3.13
2022-09-13T22:46:25.249Z,3.10
2022-09-13T22:48:59.636Z,2.92
2022-09-13T22:51:26.662Z,2.53
2022-09-13T22:53:54.505Z,2.90
2022-09-13T22:56:26.946Z,2.95
2022-09-13T22:58:59.351Z,3.03
2022-09-13T23:01:27.426Z,2.72
2022-09-13T23:03:54.337Z,2.47
2022-09-13T23:06:23.178Z,2.83
2022-09-13T23:08:51.207Z,2.97
2022-09-13T23:11:21.238Z,2.55
2022-09-13T23:13:50.052Z,2.95
2022-09-13T23:16:25.305Z,2.90
2022-09-13T23:18:53.075Z,2.60
2022-09-13T23:21:25.843Z,2.67
2022-09-13T23:23:52.391Z,2.47
2022-09-13T23:26:21.147Z,2.67
2022-09-13T23:28:51.592Z,2.50
2022-09-13T23:31:21.573Z,3.17
2022-09-13T23:33:51.313Z,2.60
2022-09-13T23:36:24.025Z,2.58
2022-09-13T23:38:53.074Z,2.63
2022-09-13T23:41:20.619Z,2.35
2022-09-13T23:43:47.282Z,2.78
2022-09-13T23:46:14.731Z,2.33
2022-09-13T23:48:44.386Z,2.67
2022-09-13T23:51:13.981Z,2.42
2022-09-13T23:53:41.528Z,2.75
2022-09-13T23:56:08.533Z,2.20
2022-09-13T23:58:36.449Z,2.70
